Time;durP1;ratioP1;P1;durP2;ratioP2;P2;SDS_P1;SDS_P2;PMS_P1;PMS_P2;Temp;Humidity;BMP_temperature;BMP_pressure;BME280_temperature;BME280_humidity;BME280_pressure;Samples;Min_cycle;Max_cycle;Signal;HPM_P1;HPM_P2
2021/11/18 00:01:15;;;;;;;15.60;9.58;;;25.40;93.10;;;;;;1863135;76;21247;-79
2021/11/18 00:03:47;;;;;;;19.62;11.40;;;25.40;92.70;;;;;;1877044;74;21111;-79
2021/11/18 00:06:18;;;;;;;19.65;10.95;;;25.40;92.60;;;;;;1855353;76;21237;-80
2021/11/18 00:08:48;;;;;;;15.13;9.20;;;25.40;92.40;;;;;;1870901;74;21174;-79
2021/11/18 00:11:21;;;;;;;16.42;9.68;;;25.50;92.30;;;;;;1877159;75;21080;-80
2021/11/18 00:13:55;;;;;;;13.55;9.20;;;25.50;92.20;;;;;;1860073;75;21595;-80
2021/11/18 00:16:27;;;;;;;18.95;9.80;;;25.50;92.30;;;;;;1838318;76;21586;-80
2021/11/18 00:18:58;;;;;;;13.10;8.55;;;25.60;92.30;;;;;;1854132;75;21157;-80
2021/11/18 00:21:31;;;;;;;19.00;9.15;;;25.70;92.10;;;;;;1873377;76;21228;-80
2021/11/18 00:24:03;;;;;;;16.32;9.05;;;25.70;92.00;;;;;;1883182;74;21189;-80
2021/11/18 00:26:36;;;;;;;17.02;9.20;;;25.80;91.90;;;;;;1904905;74;21155;-78
2021/11/18 00:29:08;;;;;;;12.30;9.23;;;25.80;91.80;;;;;;1886515;75;21094;-78
2021/11/18 00:31:41;;;;;;;15.55;9.75;;;25.80;91.70;;;;;;1873349;76;21274;-79
2021/11/18 00:34:13;;;;;;;11.78;9.05;;;25.80;91.70;;;;;;1859774;76;21323;-78
2021/11/18 00:36:44;;;;;;;18.10;9.50;;;25.80;91.60;;;;;;1869807;76;21061;-78
2021/11/18 00:39:15;;;;;;;16.42;9.83;;;25.90;91.70;;;;;;1864151;76;21614;-72
2021/11/18 00:41:46;;;;;;;15.65;9.95;;;25.90;91.60;;;;;;1876498;76;21118;-74
2021/11/18 00:44:18;;;;;;;16.32;9.95;;;25.90;91.50;;;;;;1860700;75;21221;-72
2021/11/18 00:46:49;;;;;;;19.32;10.13;;;26.00;91.50;;;;;;1866290;76;21168;-72
2021/11/18 00:49:21;;;;;;;13.20;9.08;;;25.90;91.50;;;;;;1858786;76;21083;-73
2021/11/18 00:51:52;;;;;;;18.45;10.55;;;26.00;91.50;;;;;;1882565;74;21600;-72
2021/11/18 00:54:24;;;;;;;24.55;15.20;;;26.00;91.40;;;;;;1903464;73;21701;-72
2021/11/18 00:56:58;;;;;;;18.17;10.78;;;26.00;91.40;;;;;;1910377;73;21603;-72
2021/11/18 00:59:29;;;;;;;13.10;8.28;;;26.00;91.30;;;;;;1901464;73;21182;-73
2021/11/18 01:01:59;;;;;;;16.73;8.30;;;26.00;91.30;;;;;;1880425;75;21672;-72
2021/11/18 01:04:30;;;;;;;11.43;7.42;;;26.00;91.40;;;;;;1861774;75;21186;-72
2021/11/18 01:07:01;;;;;;;11.35;7.83;;;26.10;91.20;;;;;;1857904;76;21146;-72
2021/11/18 01:09:32;;;;;;;11.63;7.10;;;26.10;91.00;;;;;;1863724;76;21772;-72
2021/11/18 01:12:24;;;;;;;;;;;;;;;;;;;;;
2021/11/18 01:15:06;;;;;;;11.80;7.22;;;26.20;90.90;;;;;;1837206;76;21566;-74
2021/11/18 01:17:37;;;;;;;13.53;6.87;;;26.20;90.90;;;;;;1865415;76;21244;-74
2021/11/18 01:20:09;;;;;;;13.60;7.65;;;26.20;91.00;;;;;;1868078;76;21177;-74
2021/11/18 01:22:41;;;;;;;14.03;6.83;;;26.20;91.00;;;;;;1878787;75;21134;-73
2021/11/18 01:25:13;;;;;;;12.18;7.03;;;26.30;91.00;;;;;;1848367;76;21179;-75
2021/11/18 01:27:44;;;;;;;12.00;6.58;;;26.40;91.00;;;;;;1842476;76;21163;-74
2021/11/18 01:30:20;;;;;;;12.60;7.10;;;26.40;91.00;;;;;;1840516;76;21222;-74
2021/11/18 01:32:51;;;;;;;10.90;6.50;;;26.50;91.00;;;;;;1862148;76;21611;-73
2021/11/18 01:35:22;;;;;;;9.23;6.00;;;26.50;91.00;;;;;;1865447;76;21202;-75
2021/11/18 01:37:54;;;;;;;22.35;7.12;;;26.50;91.00;;;;;;1859980;76;21417;-74
2021/11/18 01:40:27;;;;;;;13.32;6.67;;;26.60;90.90;;;;;;1881895;74;21125;-75
2021/11/18 01:42:59;;;;;;;14.70;6.80;;;26.60;90.80;;;;;;1919891;73;21172;-75
2021/11/18 01:45:32;;;;;;;9.98;5.75;;;26.60;90.70;;;;;;1928680;73;21130;-74
2021/11/18 01:48:03;;;;;;;10.35;6.67;;;26.70;90.70;;;;;;1919613;73;21156;-73
2021/11/18 01:50:36;;;;;;;11.05;6.53;;;26.70;90.60;;;;;;1898145;74;21187;-72
2021/11/18 01:53:09;;;;;;;12.28;6.70;;;26.80;90.30;;;;;;1914249;73;21143;-74
2021/11/18 01:55:42;;;;;;;8.78;6.05;;;26.80;90.30;;;;;;1869256;76;21654;-75
2021/11/18 01:58:16;;;;;;;14.10;6.95;;;26.80;90.10;;;;;;1856766;76;21239;-75
2021/11/18 02:00:51;;;;;;;11.93;6.77;;;26.80;90.10;;;;;;1880101;75;21107;-75
2021/11/18 02:03:24;;;;;;;13.75;7.62;;;26.80;90.00;;;;;;1858124;76;21497;-75
2021/11/18 02:05:59;;;;;;;10.50;6.90;;;26.80;90.10;;;;;;1857092;76;21629;-74
2021/11/18 02:08:30;;;;;;;9.28;5.30;;;26.90;90.10;;;;;;1887055;76;21525;-74
2021/11/18 02:11:06;;;;;;;12.25;6.42;;;27.00;89.90;;;;;;1886495;76;22067;-75
2021/11/18 02:13:36;;;;;;;12.28;6.35;;;27.00;89.80;;;;;;1871967;76;21125;-74
2021/11/18 02:16:12;;;;;;;10.43;6.17;;;27.00;90.00;;;;;;1908079;74;21701;-75
2021/11/18 02:18:40;;;;;;;7.80;5.40;;;27.10;89.90;;;;;;1895999;75;21189;-74
2021/11/18 02:21:13;;;;;;;9.08;5.28;;;27.10;89.20;;;;;;1863290;76;21083;-76
2021/11/18 02:23:47;;;;;;;11.05;4.83;;;27.20;88.80;;;;;;1851056;76;21147;-74
2021/11/18 02:26:19;;;;;;;11.70;4.80;;;27.20;88.10;;;;;;1847494;76;21118;-74
2021/11/18 02:28:52;;;;;;;10.63;5.10;;;27.20;88.60;;;;;;1891622;74;21192;-75
2021/11/18 02:31:24;;;;;;;11.22;5.25;;;27.10;88.50;;;;;;1878614;76;21111;-74
2021/11/18 02:33:56;;;;;;;11.22;5.58;;;27.20;88.80;;;;;;1876742;75;21176;-73
2021/11/18 02:36:27;;;;;;;13.03;8.13;;;27.20;88.70;;;;;;1853643;76;21152;-74
2021/11/18 02:38:58;;;;;;;10.28;6.50;;;27.20;89.20;;;;;;1872796;76;21094;-72
2021/11/18 02:41:29;;;;;;;7.95;4.05;;;27.30;87.90;;;;;;1919341;74;21106;-74
2021/11/18 02:44:00;;;;;;;7.17;4.42;;;27.30;86.90;;;;;;1915511;74;21144;-73
2021/11/18 02:46:31;;;;;;;8.73;4.25;;;27.30;86.80;;;;;;1916684;74;21313;-72
2021/11/18 02:49:02;;;;;;;7.40;4.33;;;27.30;86.90;;;;;;1866145;76;21091;-72
2021/11/18 02:51:34;;;;;;;7.28;4.28;;;27.30;87.30;;;;;;1923263;73;21131;-71
2021/11/18 02:54:08;;;;;;;7.87;4.33;;;27.30;87.30;;;;;;1911814;74;21134;-72
2021/11/18 02:56:39;;;;;;;6.75;3.52;;;27.40;87.10;;;;;;1933656;73;21602;-73
2021/11/18 02:59:10;;;;;;;7.40;5.00;;;27.40;86.70;;;;;;1923011;73;21523;-71
2021/11/18 03:01:43;;;;;;;5.65;4.17;;;27.40;86.50;;;;;;1845036;77;21085;-72
2021/11/18 03:04:16;;;;;;;6.25;4.42;;;27.50;86.80;;;;;;1930654;74;21108;-72
2021/11/18 03:06:47;;;;;;;8.10;4.50;;;27.50;86.70;;;;;;1922151;73;21147;-72
2021/11/18 03:09:18;;;;;;;7.35;4.50;;;27.60;86.70;;;;;;1899229;75;21667;-72
2021/11/18 03:11:49;;;;;;;8.90;4.70;;;27.60;86.50;;;;;;1877581;76;21131;-72
2021/11/18 03:14:21;;;;;;;8.68;4.47;;;27.70;86.50;;;;;;1923545;73;21112;-73
2021/11/18 03:16:51;;;;;;;6.87;4.45;;;27.80;86.30;;;;;;1926229;74;21164;-72
2021/11/18 03:19:22;;;;;;;9.08;4.37;;;27.80;86.10;;;;;;1866264;76;21149;-73
2021/11/18 03:21:53;;;;;;;6.58;4.35;;;27.80;85.80;;;;;;1924068;74;21515;-72
2021/11/18 03:24:24;;;;;;;6.00;3.58;;;27.80;85.90;;;;;;1916289;74;21579;-72
2021/11/18 03:26:57;;;;;;;6.30;2.92;;;27.80;85.30;;;;;;1874613;76;21118;-73
2021/11/18 03:29:28;;;;;;;7.47;3.02;;;27.90;85.20;;;;;;1928388;74;21583;-73
2021/11/18 03:31:59;;;;;;;4.08;2.25;;;27.90;84.20;;;;;;1849158;76;21736;-72
2021/11/18 03:34:32;;;;;;;4.58;1.85;;;28.00;83.50;;;;;;1910555;73;21285;-73
2021/11/18 03:37:03;;;;;;;2.22;1.42;;;28.10;82.70;;;;;;1929652;73;21142;-74
2021/11/18 03:39:34;;;;;;;4.20;1.57;;;28.10;82.30;;;;;;1871376;76;21613;-73
2021/11/18 03:42:08;;;;;;;2.72;2.10;;;28.20;81.80;;;;;;1904535;74;21057;-73
2021/11/18 03:44:40;;;;;;;3.42;1.70;;;28.20;81.60;;;;;;1912751;73;21490;-74
2021/11/18 03:47:13;;;;;;;2.62;1.72;;;28.30;82.00;;;;;;1853288;76;21605;-75
2021/11/18 03:49:45;;;;;;;2.98;1.70;;;28.40;81.30;;;;;;1905070;74;21238;-74
2021/11/18 03:52:17;;;;;;;4.33;1.67;;;28.40;81.60;;;;;;1852411;77;21127;-74
2021/11/18 03:54:49;;;;;;;3.25;1.80;;;28.40;80.60;;;;;;1899195;75;21119;-72
2021/11/18 03:57:20;;;;;;;3.50;2.00;;;28.50;81.10;;;;;;1851127;77;21589;-72
2021/11/18 03:59:51;;;;;;;3.80;1.60;;;28.60;81.10;;;;;;1842390;77;21174;-73
2021/11/18 04:02:22;;;;;;;4.30;1.80;;;28.70;80.90;;;;;;1834636;77;21088;-73
2021/11/18 04:05:00;;;;;;;4.35;1.60;;;28.70;80.40;;;;;;1856353;77;21205;-72
2021/11/18 04:07:28;;;;;;;2.50;1.37;;;28.80;79.50;;;;;;1906231;75;21482;-72
2021/11/18 04:09:59;;;;;;;2.95;1.70;;;28.90;79.80;;;;;;1913340;75;21136;-72
2021/11/18 04:12:30;;;;;;;2.77;1.62;;;28.90;78.80;;;;;;1906018;75;21149;-72
2021/11/18 04:15:00;;;;;;;3.25;1.72;;;28.90;79.50;;;;;;1915351;75;21108;-72
2021/11/18 04:17:31;;;;;;;3.40;1.60;;;29.00;78.60;;;;;;1910930;75;21151;-72
2021/11/18 04:20:02;;;;;;;5.15;2.00;;;29.10;78.20;;;;;;1892439;75;21577;-72
2021/11/18 04:22:33;;;;;;;3.22;1.60;;;29.10;78.20;;;;;;1843120;77;21135;-72
2021/11/18 04:25:07;;;;;;;2.25;1.65;;;29.20;77.80;;;;;;1881345;75;21091;-74
2021/11/18 04:27:39;;;;;;;3.75;1.70;;;29.20;78.60;;;;;;1895098;75;21120;-73
2021/11/18 04:30:13;;;;;;;2.45;1.37;;;29.20;78.30;;;;;;1906042;74;21128;-72
2021/11/18 04:32:44;;;;;;;2.60;1.55;;;29.20;78.20;;;;;;1898897;73;21528;-73
2021/11/18 04:35:16;;;;;;;3.05;1.57;;;29.20;78.00;;;;;;1908321;73;21128;-73
2021/11/18 04:37:47;;;;;;;4.40;1.80;;;29.30;77.60;;;;;;1913428;74;21528;-74
2021/11/18 04:40:19;;;;;;;3.65;1.50;;;29.30;76.90;;;;;;1832405;78;21233;-73
2021/11/18 04:42:49;;;;;;;2.83;1.70;;;29.30;77.90;;;;;;1817501;78;21137;-74
2021/11/18 04:45:22;;;;;;;4.05;1.98;;;29.40;78.10;;;;;;1899146;75;21153;-73
2021/11/18 04:47:53;;;;;;;4.30;1.57;;;29.50;78.20;;;;;;1853524;76;21555;-73
2021/11/18 04:50:25;;;;;;;6.25;1.98;;;29.60;77.60;;;;;;1861251;76;21075;-73
2021/11/18 04:52:56;;;;;;;3.65;1.80;;;29.80;77.00;;;;;;1872662;76;21085;-73
2021/11/18 04:55:29;;;;;;;4.40;2.08;;;30.00;76.40;;;;;;1856087;76;21198;-73
2021/11/18 04:58:00;;;;;;;7.00;2.70;;;30.10;75.90;;;;;;1842186;77;21490;-73
2021/11/18 05:00:33;;;;;;;4.03;1.90;;;30.30;75.40;;;;;;1852067;76;21152;-73
2021/11/18 05:03:05;;;;;;;3.92;1.80;;;30.30;75.10;;;;;;1853392;76;21538;-71
2021/11/18 05:05:36;;;;;;;2.55;1.65;;;30.40;74.90;;;;;;1851153;76;21176;-72
2021/11/18 05:08:07;;;;;;;4.08;1.52;;;30.40;75.00;;;;;;1849870;76;22247;-73
2021/11/18 05:10:38;;;;;;;4.53;2.00;;;30.40;75.70;;;;;;1839928;77;21185;-73
2021/11/18 05:13:09;;;;;;;5.95;1.80;;;30.40;76.00;;;;;;1858137;75;21634;-72
2021/11/18 05:15:43;;;;;;;2.65;1.70;;;30.40;74.60;;;;;;1851959;76;21142;-72
2021/11/18 05:18:15;;;;;;;4.83;1.52;;;30.60;74.70;;;;;;1841955;76;21090;-72
2021/11/18 05:20:46;;;;;;;3.62;2.10;;;30.70;74.30;;;;;;1864377;75;21099;-72
2021/11/18 05:23:18;;;;;;;4.87;2.08;;;30.80;73.40;;;;;;1875910;75;21179;-74
2021/11/18 05:25:49;;;;;;;2.98;1.80;;;30.90;74.40;;;;;;1886358;75;21130;-75
2021/11/18 05:28:20;;;;;;;2.67;1.42;;;30.90;72.80;;;;;;1854235;76;21762;-74
2021/11/18 05:30:52;;;;;;;3.52;1.50;;;30.80;72.80;;;;;;1838508;77;21114;-73
2021/11/18 05:33:26;;;;;;;4.40;2.10;;;30.70;72.30;;;;;;1850892;76;21152;-72
2021/11/18 05:36:00;;;;;;;2.72;1.55;;;30.60;73.50;;;;;;1854199;76;21139;-73
2021/11/18 05:38:33;;;;;;;4.08;2.40;;;30.50;74.20;;;;;;1886962;76;21189;-72
2021/11/18 05:41:05;;;;;;;7.60;1.92;;;30.50;74.80;;;;;;1864373;76;21133;-72
2021/11/18 05:43:40;;;;;;;3.65;2.00;;;30.50;75.20;;;;;;1885099;76;21759;-73
2021/11/18 05:46:10;;;;;;;3.85;2.42;;;30.40;75.20;;;;;;1869565;76;21157;-74
2021/11/18 05:48:41;;;;;;;3.85;2.50;;;30.40;75.30;;;;;;1860023;76;21127;-72
2021/11/18 05:51:14;;;;;;;5.28;1.95;;;30.50;75.10;;;;;;1854828;77;21631;-72
2021/11/18 05:54:08;;;;;;;4.20;2.00;;;30.60;74.60;;;;;;1875912;76;21187;-74
2021/11/18 05:56:42;;;;;;;6.55;1.92;;;30.70;74.40;;;;;;1843591;77;21169;-74
2021/11/18 05:59:13;;;;;;;3.08;1.98;;;30.80;73.40;;;;;;1884035;76;21700;-73
2021/11/18 06:01:44;;;;;;;3.83;2.17;;;30.90;73.20;;;;;;1839344;77;21166;-73
2021/11/18 06:04:16;;;;;;;4.78;2.50;;;30.80;73.90;;;;;;1900867;74;21603;-73
2021/11/18 06:06:47;;;;;;;5.92;2.45;;;30.70;73.40;;;;;;1880737;75;21153;-72
2021/11/18 06:09:18;;;;;;;4.55;2.05;;;30.70;73.80;;;;;;1895275;74;21149;-72
2021/11/18 06:11:49;;;;;;;4.08;2.27;;;30.70;74.30;;;;;;1866617;76;21078;-72
2021/11/18 06:14:21;;;;;;;6.15;2.37;;;30.70;74.00;;;;;;1851021;76;21176;-72
2021/11/18 06:16:52;;;;;;;4.55;3.08;;;30.90;74.00;;;;;;1858853;76;21496;-73
2021/11/18 06:19:26;;;;;;;4.53;2.70;;;31.00;73.10;;;;;;1849631;76;21130;-75
2021/11/18 06:21:57;;;;;;;5.15;2.00;;;31.20;72.90;;;;;;1867834;75;21406;-73
2021/11/18 06:24:29;;;;;;;5.40;2.22;;;31.30;73.00;;;;;;1884923;75;21584;-76
2021/11/18 06:27:00;;;;;;;4.92;2.10;;;31.30;72.40;;;;;;1885067;75;21776;-74
2021/11/18 06:29:33;;;;;;;4.53;2.35;;;31.40;73.00;;;;;;1885791;75;21581;-74
2021/11/18 06:32:06;;;;;;;6.47;2.22;;;31.40;72.40;;;;;;1850339;76;21107;-74
2021/11/18 06:34:38;;;;;;;6.53;2.45;;;31.40;72.20;;;;;;1871086;75;21221;-74
2021/11/18 06:37:10;;;;;;;3.25;1.90;;;31.50;71.20;;;;;;1863424;75;21141;-73
2021/11/18 06:39:42;;;;;;;4.47;2.60;;;31.60;71.50;;;;;;1866411;75;21086;-73
2021/11/18 06:42:14;;;;;;;4.55;2.40;;;31.60;70.80;;;;;;1866679;75;21450;-73
2021/11/18 06:44:45;;;;;;;4.72;2.33;;;31.50;71.20;;;;;;1878342;75;21641;-72
2021/11/18 06:47:17;;;;;;;7.08;2.10;;;31.40;71.20;;;;;;1855500;76;21158;-72
2021/11/18 06:49:48;;;;;;;4.58;2.20;;;31.40;71.20;;;;;;1882534;75;21158;-72
2021/11/18 06:52:18;;;;;;;3.55;2.33;;;31.40;71.20;;;;;;1832497;76;21150;-73
2021/11/18 06:54:49;;;;;;;3.80;1.87;;;31.50;71.10;;;;;;1831998;75;21066;-72
2021/11/18 06:57:20;;;;;;;3.35;2.22;;;31.40;71.40;;;;;;1878173;75;21177;-73
2021/11/18 06:59:51;;;;;;;3.65;2.17;;;31.50;71.90;;;;;;1846214;76;21139;-73
2021/11/18 07:02:22;;;;;;;7.87;3.02;;;31.50;70.90;;;;;;1847499;76;21184;-73
2021/11/18 07:04:54;;;;;;;6.05;2.45;;;31.40;70.80;;;;;;1862589;76;21170;-73
2021/11/18 07:07:25;;;;;;;4.90;2.70;;;31.40;70.50;;;;;;1845143;76;21272;-73
2021/11/18 07:10:01;;;;;;;3.87;2.50;;;31.40;71.40;;;;;;1874978;74;21103;-73
2021/11/18 07:12:30;;;;;;;5.60;2.55;;;31.40;71.70;;;;;;1935705;73;21152;-76
2021/11/18 07:15:02;;;;;;;3.42;2.17;;;31.40;71.60;;;;;;1932414;73;21132;-73
2021/11/18 07:17:33;;;;;;;5.05;2.12;;;31.40;71.70;;;;;;1925139;73;21108;-73
2021/11/18 07:20:06;;;;;;;7.55;2.45;;;31.40;71.40;;;;;;1877038;74;21632;-73
2021/11/18 07:22:39;;;;;;;9.73;2.37;;;31.40;71.40;;;;;;1876437;76;21160;-72
2021/11/18 07:25:12;;;;;;;6.03;2.20;;;31.40;71.60;;;;;;1849277;76;21278;-71
2021/11/18 07:27:43;;;;;;;10.45;3.05;;;31.30;71.50;;;;;;1912075;73;21087;-74
2021/11/18 07:30:16;;;;;;;5.15;2.98;;;31.20;72.40;;;;;;1935109;73;21176;-74
2021/11/18 07:32:49;;;;;;;8.88;3.15;;;31.10;72.40;;;;;;1932447;73;21569;-75
2021/11/18 07:35:27;;;;;;;3.25;2.08;;;31.10;73.00;;;;;;1934177;73;21587;-77
2021/11/18 07:37:58;;;;;;;4.45;2.98;;;31.00;72.90;;;;;;1898811;73;21119;-73
2021/11/18 07:40:29;;;;;;;7.28;2.55;;;30.90;73.40;;;;;;1928141;73;21643;-74
2021/11/18 07:43:00;;;;;;;4.25;2.58;;;30.90;73.30;;;;;;1926338;73;21140;-74
2021/11/18 07:45:34;;;;;;;3.58;2.52;;;30.90;73.00;;;;;;1929129;73;21560;-73
2021/11/18 07:48:06;;;;;;;11.40;2.95;;;30.80;73.30;;;;;;1937280;73;21192;-73
2021/11/18 07:50:42;;;;;;;6.45;2.50;;;30.70;73.50;;;;;;1944848;73;21052;-74
2021/11/18 07:53:15;;;;;;;6.03;2.33;;;30.70;73.90;;;;;;1931607;73;21580;-73
2021/11/18 07:55:47;;;;;;;5.67;2.60;;;30.60;73.90;;;;;;1889291;74;21147;-73
2021/11/18 07:58:19;;;;;;;4.55;2.50;;;30.70;74.40;;;;;;1861407;76;21176;-74
2021/11/18 08:00:52;;;;;;;8.90;2.42;;;30.60;74.90;;;;;;1927617;73;21113;-73
2021/11/18 08:03:24;;;;;;;3.75;2.22;;;30.70;74.70;;;;;;1854684;76;21250;-73
2021/11/18 08:05:55;;;;;;;3.17;2.00;;;30.70;73.90;;;;;;1890224;74;21202;-74
2021/11/18 08:08:26;;;;;;;4.35;2.20;;;30.70;74.30;;;;;;1932578;73;21661;-73
2021/11/18 08:10:57;;;;;;;3.10;1.90;;;30.60;74.30;;;;;;1927757;73;21787;-75
2021/11/18 08:13:29;;;;;;;6.03;2.20;;;30.70;74.30;;;;;;1898314;74;21629;-73
2021/11/18 08:16:01;;;;;;;5.10;2.62;;;30.70;74.00;;;;;;1885750;75;21116;-73
2021/11/18 08:18:31;;;;;;;9.45;2.67;;;30.60;73.90;;;;;;1889244;74;21131;-73
2021/11/18 08:21:02;;;;;;;6.45;2.75;;;30.60;74.00;;;;;;1887168;75;21159;-73
2021/11/18 08:23:34;;;;;;;6.37;2.42;;;30.60;74.20;;;;;;1884174;74;21741;-72
2021/11/18 08:26:07;;;;;;;4.05;2.17;;;30.60;74.30;;;;;;1857429;76;21585;-72
2021/11/18 08:28:39;;;;;;;3.83;2.12;;;30.60;75.00;;;;;;1893314;74;21218;-72
2021/11/18 08:31:10;;;;;;;4.47;2.35;;;30.60;75.20;;;;;;1923018;74;21142;-73
2021/11/18 08:33:42;;;;;;;7.12;2.47;;;30.60;74.80;;;;;;1910663;75;21244;-74
2021/11/18 08:36:13;;;;;;;6.70;2.30;;;30.60;74.80;;;;;;1884245;74;21141;-74
2021/11/18 08:38:47;;;;;;;4.08;2.20;;;30.60;74.40;;;;;;1854526;76;21155;-75
2021/11/18 08:41:19;;;;;;;5.62;2.67;;;30.60;74.40;;;;;;1844344;77;21105;-73
2021/11/18 08:43:53;;;;;;;5.20;2.37;;;30.60;74.50;;;;;;1889479;74;21115;-72
2021/11/18 08:46:26;;;;;;;6.00;2.40;;;30.60;74.30;;;;;;1881573;75;21228;-73
2021/11/18 08:49:01;;;;;;;5.05;2.20;;;30.60;74.50;;;;;;1880607;74;21216;-76
2021/11/18 08:51:33;;;;;;;4.08;2.40;;;30.60;74.40;;;;;;1881803;74;21207;-72
2021/11/18 08:54:07;;;;;;;4.62;1.80;;;30.60;74.00;;;;;;1923824;73;21134;-76
2021/11/18 08:56:38;;;;;;;4.42;2.27;;;30.50;74.10;;;;;;1943853;73;21141;-76
2021/11/18 08:59:11;;;;;;;4.58;2.77;;;30.40;73.70;;;;;;1925567;73;21265;-74
2021/11/18 09:01:46;;;;;;;4.53;2.42;;;30.40;74.50;;;;;;1894376;75;21972;-75
2021/11/18 09:04:20;;;;;;;5.20;2.42;;;30.40;74.30;;;;;;1933341;73;21108;-73
2021/11/18 09:06:52;;;;;;;7.05;3.55;;;30.40;74.70;;;;;;1900895;74;21155;-71
2021/11/18 09:09:25;;;;;;;4.75;2.27;;;30.40;74.40;;;;;;1869186;76;21209;-71
2021/11/18 09:11:58;;;;;;;4.22;2.17;;;30.40;74.30;;;;;;1936789;73;21664;-73
2021/11/18 09:14:31;;;;;;;6.37;2.77;;;30.50;74.40;;;;;;1902180;74;21728;-72
2021/11/18 09:17:05;;;;;;;5.60;2.77;;;30.40;74.30;;;;;;1939461;73;21107;-72
2021/11/18 09:19:37;;;;;;;4.70;2.30;;;30.40;74.40;;;;;;1943676;73;21126;-71
2021/11/18 09:22:10;;;;;;;4.83;2.12;;;30.40;74.50;;;;;;1911225;75;21158;-72
2021/11/18 09:24:44;;;;;;;4.55;2.17;;;30.40;74.30;;;;;;1947791;73;21575;-72
2021/11/18 09:27:17;;;;;;;4.85;2.37;;;30.30;74.30;;;;;;1889054;74;21147;-73
2021/11/18 09:29:49;;;;;;;6.70;2.15;;;30.30;74.40;;;;;;1926002;73;21167;-72
2021/11/18 09:32:20;;;;;;;5.17;2.52;;;30.30;74.60;;;;;;1932836;73;21123;-73
2021/11/18 09:34:51;;;;;;;5.85;2.92;;;30.20;74.60;;;;;;1936537;73;21567;-74
2021/11/18 09:37:23;;;;;;;4.97;2.58;;;30.20;75.40;;;;;;1860940;75;21253;-73
2021/11/18 09:39:55;;;;;;;6.95;3.72;;;30.20;75.20;;;;;;1928055;73;21147;-74
2021/11/18 09:42:28;;;;;;;10.50;5.85;;;30.20;75.00;;;;;;1927383;73;21130;-74
2021/11/18 09:45:04;;;;;;;10.32;3.50;;;30.10;75.00;;;;;;1925905;73;21123;-72
2021/11/18 09:47:34;;;;;;;8.78;3.20;;;30.10;75.30;;;;;;1944920;73;21683;-77
2021/11/18 09:50:08;;;;;;;4.15;1.95;;;30.10;75.30;;;;;;1905307;74;21658;-71
2021/11/18 09:52:41;;;;;;;5.92;2.27;;;30.20;75.00;;;;;;1899969;74;21648;-71
2021/11/18 09:55:15;;;;;;;4.37;2.80;;;30.20;75.10;;;;;;1941965;73;21135;-72
2021/11/18 09:57:48;;;;;;;4.75;2.42;;;30.30;74.90;;;;;;1908138;73;21199;-72
2021/11/18 10:00:20;;;;;;;7.08;2.25;;;30.30;74.90;;;;;;1860644;76;21111;-73
2021/11/18 10:02:53;;;;;;;10.85;2.75;;;30.30;74.90;;;;;;1823879;77;21191;-73
2021/11/18 10:05:25;;;;;;;9.70;2.62;;;30.20;74.90;;;;;;1815825;79;21267;-73
2021/11/18 10:07:58;;;;;;;5.62;1.98;;;30.20;75.10;;;;;;1824739;77;21113;-73
2021/11/18 10:10:49;;;;;;;5.50;2.40;;;30.20;75.00;;;;;;1860361;77;21226;-72
2021/11/18 10:13:22;;;;;;;3.80;2.12;;;30.20;75.10;;;;;;1848458;77;21162;-74
2021/11/18 10:15:54;;;;;;;6.58;2.27;;;30.10;74.80;;;;;;1859261;76;21083;-72
2021/11/18 10:18:27;;;;;;;5.97;2.25;;;30.10;75.10;;;;;;1838866;75;21142;-72
2021/11/18 10:21:01;;;;;;;7.00;2.45;;;30.00;75.30;;;;;;1866272;75;21650;-73
2021/11/18 10:23:32;;;;;;;5.05;2.58;;;30.00;75.70;;;;;;1853084;77;21103;-72
2021/11/18 10:26:05;;;;;;;9.50;2.75;;;30.00;75.70;;;;;;1858889;77;21126;-74
2021/11/18 10:28:39;;;;;;;5.90;2.60;;;30.00;75.90;;;;;;1857753;77;21092;-73
2021/11/18 10:31:16;;;;;;;5.65;3.02;;;30.00;76.20;;;;;;1867075;75;21124;-72
2021/11/18 10:33:47;;;;;;;6.62;3.20;;;29.90;76.30;;;;;;1853934;75;21154;-74
2021/11/18 10:36:40;;;;;;;6.90;2.80;;;29.90;76.40;;;;;;1868475;75;21075;-74
2021/11/18 10:39:19;;;;;;;6.95;3.67;;;29.90;77.60;;;;;;1911222;74;22117;-72
2021/11/18 10:41:53;;;;;;;6.90;3.45;;;29.80;76.90;;;;;;1931865;73;21200;-72
2021/11/18 10:44:26;;;;;;;6.00;3.77;;;29.90;77.20;;;;;;1936692;73;21215;-72
2021/11/18 10:47:00;;;;;;;6.78;3.50;;;29.80;77.40;;;;;;1934074;73;21157;-75
2021/11/18 10:49:34;;;;;;;12.55;3.92;;;29.80;77.60;;;;;;1935520;72;21051;-73
2021/11/18 10:52:08;;;;;;;7.25;3.62;;;29.80;77.70;;;;;;1935723;73;21802;-73
2021/11/18 10:54:41;;;;;;;10.88;4.55;;;29.70;77.80;;;;;;1888832;76;21150;-73
2021/11/18 10:57:15;;;;;;;7.35;4.00;;;29.70;77.90;;;;;;1947525;73;21105;-72
2021/11/18 10:59:48;;;;;;;9.48;4.75;;;29.70;78.00;;;;;;1902969;73;21138;-74
2021/11/18 11:02:21;;;;;;;7.15;4.15;;;29.70;78.20;;;;;;1905337;73;21143;-73
2021/11/18 11:04:55;;;;;;;6.60;4.00;;;29.70;78.30;;;;;;1933896;73;21539;-73
2021/11/18 11:07:28;;;;;;;9.28;4.37;;;29.60;78.30;;;;;;1928096;74;21593;-78
2021/11/18 11:09:58;;;;;;;9.53;4.58;;;29.60;78.50;;;;;;1930012;72;21047;-78
2021/11/18 11:12:31;;;;;;;10.85;5.45;;;29.60;78.80;;;;;;1857359;77;21181;-77
2021/11/18 11:15:02;;;;;;;14.18;6.80;;;29.60;78.90;;;;;;1890471;75;21224;-76
2021/11/18 11:17:36;;;;;;;11.00;5.92;;;29.50;79.10;;;;;;1935824;74;21123;-78
2021/11/18 11:20:09;;;;;;;10.20;5.97;;;29.50;79.10;;;;;;1885431;75;21143;-78
2021/11/18 11:22:42;;;;;;;11.33;5.30;;;29.50;79.30;;;;;;1889562;74;21166;-77
2021/11/18 11:25:15;;;;;;;11.03;5.33;;;29.50;79.30;;;;;;1887401;74;21145;-78
2021/11/18 11:27:48;;;;;;;9.70;4.83;;;29.50;79.40;;;;;;1930160;72;21236;-77
2021/11/18 11:30:21;;;;;;;8.08;5.08;;;29.40;79.60;;;;;;1930542;73;21724;-77
2021/11/18 11:32:54;;;;;;;8.23;5.03;;;29.40;79.70;;;;;;1926187;72;21621;-77
2021/11/18 11:35:27;;;;;;;14.75;7.45;;;29.40;79.80;;;;;;1884694;76;21472;-77
2021/11/18 11:38:01;;;;;;;11.50;5.15;;;29.40;80.00;;;;;;1908202;74;21100;-76
2021/11/18 11:40:33;;;;;;;10.58;6.20;;;29.30;79.80;;;;;;1925224;74;21193;-76
2021/11/18 11:43:07;;;;;;;9.40;5.50;;;29.30;79.70;;;;;;1925904;73;21709;-76
2021/11/18 11:45:45;;;;;;;11.10;5.28;;;29.30;79.70;;;;;;1934333;73;21592;-77
2021/11/18 11:48:15;;;;;;;11.63;5.60;;;29.30;79.70;;;;;;1932482;73;21165;-77
2021/11/18 11:50:48;;;;;;;13.03;5.50;;;29.30;79.80;;;;;;1930824;73;21252;-78
2021/11/18 11:53:20;;;;;;;10.50;5.20;;;29.20;79.80;;;;;;1921096;74;21628;-78
2021/11/18 11:55:54;;;;;;;7.12;5.25;;;29.20;79.80;;;;;;1932008;74;21614;-78
2021/11/18 11:58:27;;;;;;;9.30;4.97;;;29.20;79.90;;;;;;1927356;73;21557;-76
2021/11/18 12:01:00;;;;;;;10.75;6.60;;;29.20;79.90;;;;;;1926281;73;21251;-78
2021/11/18 12:03:34;;;;;;;9.33;5.87;;;29.20;79.90;;;;;;1929911;73;21126;-77
2021/11/18 12:06:07;;;;;;;10.03;5.95;;;29.20;80.00;;;;;;1880740;76;21142;-77
2021/11/18 12:08:48;;;;;;;12.53;5.95;;;29.10;80.00;;;;;;1882664;75;21701;-78
2021/11/18 12:11:27;;;;;;;10.20;6.17;;;29.10;80.20;;;;;;1887049;75;21174;-77
2021/11/18 12:14:00;;;;;;;10.32;5.85;;;29.10;80.40;;;;;;1853946;76;21114;-77
2021/11/18 12:16:35;;;;;;;10.58;6.33;;;29.10;80.40;;;;;;1932461;73;21085;-77
2021/11/18 12:19:06;;;;;;;9.00;6.70;;;29.00;80.30;;;;;;1932671;72;21202;-76
2021/11/18 12:21:39;;;;;;;8.88;5.95;;;29.00;80.40;;;;;;1924441;73;21189;-76
2021/11/18 12:24:12;;;;;;;9.35;5.90;;;29.00;80.60;;;;;;1898829;74;21063;-77
2021/11/18 12:26:45;;;;;;;12.10;6.17;;;29.00;80.50;;;;;;1909428;74;21111;-77
2021/11/18 12:29:17;;;;;;;11.12;5.80;;;29.00;80.50;;;;;;1929517;73;21213;-79
2021/11/18 12:31:50;;;;;;;9.28;5.60;;;29.00;80.60;;;;;;1930801;73;21132;-78
2021/11/18 12:34:28;;;;;;;8.90;5.85;;;28.90;80.60;;;;;;1930149;73;21142;-77
2021/11/18 12:37:03;;;;;;;11.53;5.72;;;28.90;80.70;;;;;;1933940;73;21166;-78
2021/11/18 12:39:38;;;;;;;7.90;5.42;;;28.90;80.80;;;;;;1937204;73;21500;-78
2021/11/18 12:42:11;;;;;;;10.23;5.45;;;28.90;80.80;;;;;;1930355;73;21137;-78
2021/11/18 12:44:47;;;;;;;10.40;5.50;;;28.90;80.90;;;;;;1920842;74;21268;-78
2021/11/18 12:47:19;;;;;;;10.53;5.58;;;28.90;80.90;;;;;;1925405;73;21811;-78
2021/11/18 12:49:52;;;;;;;12.55;6.37;;;28.90;80.90;;;;;;1923752;74;21165;-77
2021/11/18 12:52:30;;;;;;;8.35;5.85;;;28.80;80.90;;;;;;1898022;74;21248;-78
2021/11/18 12:55:02;;;;;;;12.30;5.53;;;28.80;80.90;;;;;;1923184;73;21541;-78
2021/11/18 12:57:34;;;;;;;9.15;5.97;;;28.80;81.00;;;;;;1922372;73;21861;-78
2021/11/18 13:00:10;;;;;;;12.03;5.78;;;28.80;81.10;;;;;;1931184;73;21110;-77
2021/11/18 13:02:44;;;;;;;10.08;6.78;;;28.80;81.10;;;;;;1967433;73;21115;-77
2021/11/18 13:05:13;;;;;;;13.72;6.62;;;28.70;81.10;;;;;;1893974;76;21186;-77
2021/11/18 13:07:46;;;;;;;12.10;6.25;;;28.70;81.30;;;;;;1928771;74;21174;-78
2021/11/18 13:10:19;;;;;;;16.35;7.33;;;28.70;81.20;;;;;;1895200;74;21126;-78
2021/11/18 13:12:53;;;;;;;9.68;6.28;;;28.70;81.30;;;;;;1921676;73;21136;-79